createdAt,value
2023-05-21T00:02:12.836Z,14.13
2023-05-21T00:06:14.491Z,12.52
2023-05-21T00:10:16.127Z,12.35
2023-05-21T00:14:17.723Z,12.00
2023-05-21T00:18:20.660Z,11.80
2023-05-21T00:22:22.280Z,11.50
2023-05-21T00:26:23.835Z,12.07
2023-05-21T00:30:25.557Z,12.02
2023-05-21T00:34:28.446Z,10.82
2023-05-21T00:38:30.045Z,11.68
2023-05-21T00:42:31.592Z,11.55
2023-05-21T00:46:33.485Z,11.18
2023-05-21T00:50:36.863Z,11.65
2023-05-21T00:54:39.310Z,10.43
2023-05-21T00:58:41.500Z,12.05
2023-05-21T01:02:43.176Z,11.67
2023-05-21T01:06:46.124Z,11.18
2023-05-21T01:10:48.016Z,11.82
2023-05-21T01:14:50.270Z,11.88
2023-05-21T01:18:52.526Z,11.63
2023-05-21T01:22:56.091Z,10.60
2023-05-21T01:26:58.753Z,11.75
2023-05-21T01:31:06.806Z,12.30
2023-05-21T01:35:11.322Z,12.73
2023-05-21T01:39:20.519Z,11.80
2023-05-21T01:43:23.359Z,13.77
2023-05-21T01:47:27.212Z,12.55
2023-05-21T01:51:29.109Z,11.82
2023-05-21T01:55:32.201Z,12.80
2023-05-21T02:03:35.524Z,11.90
2023-05-21T02:07:37.175Z,12.68
2023-05-21T02:11:40.087Z,12.88
2023-05-21T02:15:41.973Z,12.63
2023-05-21T02:19:43.558Z,12.85
2023-05-21T02:23:45.113Z,13.60
2023-05-21T02:27:48.235Z,12.07
2023-05-21T02:35:51.620Z,13.48
2023-05-21T02:39:53.374Z,11.82
2023-05-21T02:43:56.276Z,14.57
2023-05-21T02:47:57.895Z,13.35
2023-05-21T02:51:59.545Z,13.32
2023-05-21T02:56:01.113Z,12.95
2023-05-21T03:00:04.866Z,13.73
2023-05-21T03:04:06.451Z,14.10
2023-05-21T03:08:08.046Z,14.27
2023-05-21T03:12:10.249Z,14.98
2023-05-21T03:16:13.266Z,15.07
2023-05-21T03:20:14.924Z,15.77
2023-05-21T03:24:16.605Z,15.32
2023-05-21T03:28:18.496Z,25.85
2023-05-21T03:32:21.619Z,18.50
2023-05-21T03:40:24.665Z,16.70
2023-05-21T03:44:26.205Z,15.73
2023-05-21T03:48:29.187Z,17.50
2023-05-21T03:52:30.736Z,17.83
2023-05-21T03:56:32.281Z,16.52
2023-05-21T04:00:33.837Z,15.23
2023-05-21T04:04:36.758Z,16.10
2023-05-21T04:08:38.345Z,15.70
2023-05-21T04:12:39.892Z,16.75
2023-05-21T04:16:41.450Z,16.15
2023-05-21T04:20:44.362Z,14.75
2023-05-21T04:24:45.916Z,16.20
2023-05-21T04:28:47.464Z,15.55
2023-05-21T04:32:49.036Z,15.55
2023-05-21T04:36:51.960Z,15.77
2023-05-21T04:40:53.581Z,15.27
2023-05-21T04:44:55.180Z,14.13
2023-05-21T04:48:57.280Z,13.15
2023-05-21T04:53:00.229Z,13.85
2023-05-21T04:57:01.783Z,13.25
2023-05-21T05:01:03.461Z,13.73
2023-05-21T05:05:06.014Z,14.05
2023-05-21T05:09:08.938Z,13.10
2023-05-21T05:13:10.480Z,13.95
2023-05-21T05:17:12.035Z,12.45
2023-05-21T05:21:13.932Z,13.75
2023-05-21T05:25:16.802Z,11.38
2023-05-21T05:29:18.378Z,11.38
2023-05-21T05:33:19.901Z,11.57
2023-05-21T05:37:21.475Z,11.55
2023-05-21T05:41:24.373Z,12.57
2023-05-21T05:45:25.931Z,13.73
2023-05-21T05:49:27.539Z,14.52
2023-05-21T05:53:29.088Z,14.68
2023-05-21T05:57:31.982Z,15.13
2023-05-21T06:05:35.158Z,14.95
2023-05-21T06:09:36.975Z,13.77
2023-05-21T06:13:39.906Z,14.65
2023-05-21T06:17:41.521Z,13.45
2023-05-21T06:21:43.142Z,14.07
2023-05-21T06:25:44.680Z,14.18
2023-05-21T06:29:47.578Z,14.45
2023-05-21T06:33:49.360Z,15.55
2023-05-21T06:37:50.990Z,16.23
2023-05-21T06:41:52.967Z,15.45
2023-05-21T06:45:55.852Z,14.33
2023-05-21T06:49:57.409Z,14.15
2023-05-21T06:53:58.981Z,14.95
2023-05-21T06:58:00.750Z,13.50
2023-05-21T07:02:04.775Z,13.73
2023-05-21T07:06:06.411Z,13.48
2023-05-21T07:10:09.090Z,12.05
2023-05-21T07:14:10.640Z,11.82
2023-05-21T07:18:13.657Z,11.90
2023-05-21T07:22:15.368Z,11.25
2023-05-21T07:26:17.055Z,11.00
2023-05-21T07:30:19.212Z,10.43
2023-05-21T07:34:22.095Z,11.20
2023-05-21T07:38:23.619Z,10.40
2023-05-21T07:42:25.335Z,11.07
2023-05-21T07:46:27.051Z,11.47
2023-05-21T07:50:29.954Z,10.60
2023-05-21T07:54:31.511Z,9.82
2023-05-21T07:58:33.068Z,10.48
2023-05-21T08:02:34.705Z,11.10
2023-05-21T08:06:37.735Z,9.48
2023-05-21T08:10:39.295Z,8.10
2023-05-21T08:14:40.852Z,10.25
2023-05-21T08:18:42.396Z,8.85
2023-05-21T08:22:45.326Z,9.63
2023-05-21T08:26:46.874Z,9.85
2023-05-21T08:30:48.451Z,10.15
2023-05-21T08:34:49.979Z,9.82
2023-05-21T08:38:52.862Z,9.82
2023-05-21T08:42:54.402Z,11.35
2023-05-21T08:46:59.137Z,10.85
2023-05-21T08:51:00.936Z,11.55
2023-05-21T08:55:05.190Z,11.17
2023-05-21T08:59:07.464Z,10.73
2023-05-21T09:03:11.051Z,10.75
2023-05-21T09:07:12.797Z,11.27
2023-05-21T09:11:16.196Z,10.50
2023-05-21T09:15:17.892Z,11.02
2023-05-21T09:19:20.598Z,10.15
2023-05-21T09:23:22.383Z,10.75
2023-05-21T09:27:25.329Z,10.80
2023-05-21T09:31:27.493Z,9.20
2023-05-21T09:35:29.230Z,8.75
2023-05-21T09:39:30.940Z,11.43
2023-05-21T09:43:33.885Z,9.38
2023-05-21T09:47:40.903Z,9.77
2023-05-21T09:51:43.865Z,10.98
2023-05-21T09:55:45.425Z,9.38
2023-05-21T09:59:49.805Z,9.40
2023-05-21T10:03:54.764Z,8.80
2023-05-21T10:08:00.385Z,9.50
2023-05-21T10:12:02.389Z,9.45
2023-05-21T10:16:05.632Z,8.82
2023-05-21T10:20:11.435Z,9.27
2023-05-21T10:24:13.782Z,9.55
2023-05-21T10:28:17.119Z,9.43
2023-05-21T10:32:21.420Z,9.52
2023-05-21T10:36:24.828Z,9.52
2023-05-21T10:40:26.496Z,8.60
2023-05-21T10:44:40.588Z,9.52
2023-05-21T10:48:56.894Z,8.05
2023-05-21T10:53:11.619Z,8.05
2023-05-21T10:57:27.074Z,9.85
2023-05-21T11:01:29.724Z,8.88
2023-05-21T11:09:43.083Z,8.60
2023-05-21T11:13:46.249Z,9.68
2023-05-21T11:17:50.080Z,9.45
2023-05-21T11:21:51.828Z,8.70
2023-05-21T11:26:02.057Z,9.07
2023-05-21T11:30:04.998Z,9.80
2023-05-21T11:34:12.707Z,8.65
2023-05-21T11:38:14.246Z,9.15
2023-05-21T11:42:27.910Z,9.50
2023-05-21T11:46:30.017Z,7.63
2023-05-21T11:50:31.876Z,9.30
2023-05-21T11:54:37.941Z,8.37
2023-05-21T11:58:43.776Z,7.70
2023-05-21T12:02:48.679Z,8.82
2023-05-21T12:06:50.351Z,7.15
2023-05-21T12:10:55.954Z,9.02
2023-05-21T12:14:59.211Z,8.27
2023-05-21T12:19:00.912Z,7.03
2023-05-21T12:23:02.490Z,7.80
2023-05-21T12:27:07.456Z,7.25
2023-05-21T12:31:15.807Z,8.55
2023-05-21T12:35:21.733Z,7.22
2023-05-21T12:39:23.428Z,7.32
2023-05-21T12:43:25.200Z,7.53
2023-05-21T12:47:28.543Z,7.90
2023-05-21T12:51:37.951Z,8.05
2023-05-21T12:55:39.715Z,7.95
2023-05-21T12:59:49.031Z,6.50
2023-05-21T13:03:51.965Z,7.50
2023-05-21T13:07:53.524Z,7.50
2023-05-21T13:11:55.066Z,7.50
2023-05-21T13:15:56.866Z,7.13
2023-05-21T13:20:07.204Z,7.23
2023-05-21T13:24:08.917Z,7.60
2023-05-21T13:28:10.489Z,6.60
2023-05-21T13:32:12.064Z,7.82
2023-05-21T13:36:15.438Z,8.00
2023-05-21T13:40:17.162Z,7.78
2023-05-21T13:44:18.768Z,7.70
2023-05-21T13:48:20.366Z,7.85
2023-05-21T13:52:23.351Z,6.78
2023-05-21T13:56:24.890Z,7.40
2023-05-21T14:00:26.514Z,8.10
2023-05-21T14:04:28.080Z,7.50
2023-05-21T14:08:31.008Z,8.02
2023-05-21T14:12:32.558Z,7.28
2023-05-21T14:16:34.180Z,7.05
2023-05-21T14:20:35.762Z,5.57
2023-05-21T14:24:38.689Z,6.85
2023-05-21T14:28:40.261Z,7.65
2023-05-21T14:32:42.045Z,7.00
2023-05-21T14:36:43.633Z,7.33
2023-05-21T14:40:46.538Z,7.05
2023-05-21T14:44:48.079Z,7.72
2023-05-21T14:52:52.034Z,7.20
2023-05-21T14:56:54.958Z,6.07
2023-05-21T15:00:56.720Z,6.07
2023-05-21T15:04:58.220Z,7.60
2023-05-21T15:08:59.818Z,6.65
2023-05-21T15:13:02.746Z,7.40
2023-05-21T15:17:04.675Z,7.20
2023-05-21T15:21:06.339Z,7.40
2023-05-21T15:25:08.704Z,7.13
2023-05-21T15:29:11.622Z,6.78
2023-05-21T15:33:13.166Z,6.45
2023-05-21T15:37:14.915Z,7.45
2023-05-21T15:41:16.446Z,6.73
2023-05-21T15:49:22.017Z,7.50
2023-05-21T15:53:23.575Z,6.85
2023-05-21T15:57:25.114Z,5.57
2023-05-21T16:01:28.522Z,7.60
2023-05-21T16:05:30.184Z,6.97
2023-05-21T16:09:31.740Z,7.25
2023-05-21T16:13:33.317Z,7.88
2023-05-21T16:17:36.281Z,7.13
2023-05-21T16:21:37.865Z,7.70
2023-05-21T16:25:39.543Z,7.00
2023-05-21T16:29:41.335Z,7.00
2023-05-21T16:33:44.254Z,7.60
2023-05-21T16:37:45.796Z,6.93
2023-05-21T16:41:47.364Z,6.90
2023-05-21T16:45:48.972Z,7.55
2023-05-21T16:49:51.881Z,6.47
2023-05-21T16:53:53.437Z,7.28
2023-05-21T16:57:55.148Z,6.68
2023-05-21T17:01:56.905Z,6.77
2023-05-21T17:05:59.921Z,7.53
2023-05-21T17:10:01.482Z,7.40
2023-05-21T17:14:03.019Z,7.15
2023-05-21T17:18:04.675Z,7.20
2023-05-21T17:22:07.633Z,6.57
2023-05-21T17:26:09.203Z,6.88
2023-05-21T17:30:11.752Z,6.97
2023-05-21T17:38:16.049Z,7.43
2023-05-21T17:42:17.901Z,7.30
2023-05-21T17:46:19.448Z,8.13
2023-05-21T17:50:21.015Z,7.38
2023-05-21T17:54:23.992Z,7.72
2023-05-21T17:58:25.544Z,8.10
2023-05-21T18:02:27.143Z,8.52
2023-05-21T18:06:29.032Z,7.65
2023-05-21T18:10:31.946Z,8.80
2023-05-21T18:14:33.533Z,8.10
2023-05-21T18:18:35.090Z,7.90
2023-05-21T18:22:36.705Z,8.32
2023-05-21T18:26:39.669Z,8.18
2023-05-21T18:30:41.294Z,8.27
2023-05-21T18:34:42.976Z,8.25
2023-05-21T18:38:44.537Z,9.38
2023-05-21T18:42:47.684Z,10.00
2023-05-21T18:46:49.290Z,9.85
2023-05-21T18:50:50.932Z,9.50
2023-05-21T18:54:52.562Z,10.40
2023-05-21T18:58:55.465Z,9.68
2023-05-21T19:06:58.544Z,10.52
2023-05-21T19:11:00.306Z,9.57
2023-05-21T19:15:03.643Z,9.68
2023-05-21T19:19:05.331Z,10.07
2023-05-21T19:23:07.032Z,10.23
2023-05-21T19:27:08.596Z,11.02
2023-05-21T19:31:11.599Z,11.57
2023-05-21T19:35:13.429Z,10.60
2023-05-21T19:39:15.051Z,10.50
2023-05-21T19:43:16.636Z,11.57
2023-05-21T19:47:19.522Z,12.63
2023-05-21T19:51:21.088Z,10.98
2023-05-21T19:55:22.726Z,11.43
2023-05-21T19:59:24.345Z,11.50
2023-05-21T20:03:27.331Z,11.80
2023-05-21T20:11:30.620Z,12.10
2023-05-21T20:15:32.257Z,13.35
2023-05-21T20:19:35.242Z,11.38
2023-05-21T20:23:36.826Z,12.65
2023-05-21T20:27:38.392Z,12.45
2023-05-21T20:31:40.062Z,13.02
2023-05-21T20:35:43.007Z,12.05
2023-05-21T20:39:44.556Z,13.20
2023-05-21T20:43:46.315Z,12.40
2023-05-21T20:47:47.997Z,12.82
2023-05-21T20:51:51.197Z,12.75
2023-05-21T20:59:54.623Z,12.48
2023-05-21T21:03:56.346Z,14.80
2023-05-21T21:07:59.293Z,13.35
2023-05-21T21:12:06.268Z,12.70
2023-05-21T21:16:13.132Z,13.27
2023-05-21T21:20:15.020Z,13.85
2023-05-21T21:24:17.917Z,12.10
2023-05-21T21:28:19.542Z,12.68
2023-05-21T21:32:21.085Z,14.23
2023-05-21T21:36:22.631Z,14.38
2023-05-21T21:40:25.589Z,13.95
2023-05-21T21:44:27.129Z,13.18
2023-05-21T21:48:28.669Z,13.35
2023-05-21T21:52:30.221Z,13.30
2023-05-21T21:56:33.143Z,13.88
2023-05-21T22:00:34.729Z,13.20
2023-05-21T22:04:36.360Z,14.25
2023-05-21T22:08:37.962Z,14.02
2023-05-21T22:12:40.895Z,13.40
2023-05-21T22:16:42.475Z,13.45
2023-05-21T22:20:44.131Z,13.95
2023-05-21T22:24:45.674Z,14.57
2023-05-21T22:28:48.590Z,13.52
2023-05-21T22:32:50.130Z,14.93
2023-05-21T22:36:51.731Z,14.07
2023-05-21T22:40:53.425Z,13.95
2023-05-21T22:44:56.380Z,15.07
2023-05-21T22:48:57.960Z,12.75
2023-05-21T22:52:59.981Z,13.45
2023-05-21T22:57:02.344Z,13.77
2023-05-21T23:01:05.580Z,14.13
2023-05-21T23:05:07.762Z,13.35
2023-05-21T23:09:09.344Z,14.67
2023-05-21T23:13:10.898Z,13.93
2023-05-21T23:17:13.912Z,14.23
2023-05-21T23:21:15.660Z,14.80
2023-05-21T23:25:17.458Z,15.23
2023-05-21T23:29:19.024Z,14.70
2023-05-21T23:33:22.027Z,15.93
2023-05-21T23:37:23.655Z,15.18
2023-05-21T23:41:25.357Z,14.32
2023-05-21T23:45:26.964Z,14.75
2023-05-21T23:49:29.900Z,14.73
2023-05-21T23:53:31.421Z,14.43
2023-05-21T23:57:32.970Z,14.88
